sensor_id;sensor_type;location;lat;lon;timestamp;temperature;humidity
2929;DHT22;1474;51.460;7.150;2024-01-30T06:01:51;9.90;78.60
2929;DHT22;1474;51.460;7.150;2024-01-30T06:04:16;9.80;78.70
2929;DHT22;1474;51.460;7.150;2024-01-30T06:06:42;9.90;78.70
2929;DHT22;1474;51.460;7.150;2024-01-30T06:09:08;9.90;78.60
2929;DHT22;1474;51.460;7.150;2024-01-30T06:11:34;9.80;78.60
2929;DHT22;1474;51.460;7.150;2024-01-30T06:14:00;9.90;78.60
2929;DHT22;1474;51.460;7.150;2024-01-30T06:16:26;9.80;78.60
2929;DHT22;1474;51.460;7.150;2024-01-30T06:18:55;9.90;78.50
2929;DHT22;1474;51.460;7.150;2024-01-30T06:21:21;9.90;78.40
2929;DHT22;1474;51.460;7.150;2024-01-30T06:23:46;9.90;78.40
2929;DHT22;1474;51.460;7.150;2024-01-30T06:26:12;9.90;78.50
2929;DHT22;1474;51.460;7.150;2024-01-30T06:28:38;9.90;78.60
2929;DHT22;1474;51.460;7.150;2024-01-30T06:31:03;9.90;78.60
2929;DHT22;1474;51.460;7.150;2024-01-30T06:33:29;9.90;78.50
2929;DHT22;1474;51.460;7.150;2024-01-30T06:35:55;9.90;78.70
2929;DHT22;1474;51.460;7.150;2024-01-30T06:38:20;9.90;78.80
2929;DHT22;1474;51.460;7.150;2024-01-30T06:40:46;9.90;78.50
2929;DHT22;1474;51.460;7.150;2024-01-30T06:43:12;10.00;78.30
2929;DHT22;1474;51.460;7.150;2024-01-30T06:45:37;10.00;78.30
2929;DHT22;1474;51.460;7.150;2024-01-30T06:48:03;10.00;78.60
2929;DHT22;1474;51.460;7.150;2024-01-30T06:50:29;10.00;78.70
2929;DHT22;1474;51.460;7.150;2024-01-30T06:52:54;10.00;78.70
2929;DHT22;1474;51.460;7.150;2024-01-30T06:55:20;10.00;78.50
2929;DHT22;1474;51.460;7.150;2024-01-30T06:57:45;10.00;78.40
2929;DHT22;1474;51.460;7.150;2024-01-30T07:00:11;10.00;78.60
2929;DHT22;1474;51.460;7.150;2024-01-30T07:02:37;10.00;78.70
2929;DHT22;1474;51.460;7.150;2024-01-30T07:05:03;10.00;78.60
2929;DHT22;1474;51.460;7.150;2024-01-30T07:07:29;10.00;78.60
2929;DHT22;1474;51.460;7.150;2024-01-30T07:09:55;10.00;78.80
2929;DHT22;1474;51.460;7.150;2024-01-30T07:12:24;10.00;78.90
2929;DHT22;1474;51.460;7.150;2024-01-30T07:14:51;10.10;78.80
2929;DHT22;1474;51.460;7.150;2024-01-30T07:17:18;10.10;78.70
2929;DHT22;1474;51.460;7.150;2024-01-30T07:19:49;10.10;78.80
2929;DHT22;1474;51.460;7.150;2024-01-30T07:22:15;10.10;78.90
2929;DHT22;1474;51.460;7.150;2024-01-30T07:24:46;10.10;78.80
2929;DHT22;1474;51.460;7.150;2024-01-30T07:27:15;10.10;78.80
2929;DHT22;1474;51.460;7.150;2024-01-30T07:29:42;10.20;79.10
2929;DHT22;1474;51.460;7.150;2024-01-30T07:32:08;10.20;78.70
2929;DHT22;1474;51.460;7.150;2024-01-30T07:34:34;10.20;78.70
2929;DHT22;1474;51.460;7.150;2024-01-30T07:36:59;10.30;78.60
2929;DHT22;1474;51.460;7.150;2024-01-30T07:39:25;10.30;78.40
2929;DHT22;1474;51.460;7.150;2024-01-30T07:41:51;10.30;78.50
2929;DHT22;1474;51.460;7.150;2024-01-30T07:44:16;10.30;78.40
2929;DHT22;1474;51.460;7.150;2024-01-30T07:46:42;10.30;78.40
2929;DHT22;1474;51.460;7.150;2024-01-30T07:49:07;10.30;78.50
2929;DHT22;1474;51.460;7.150;2024-01-30T07:51:33;10.40;78.60
2929;DHT22;1474;51.460;7.150;2024-01-30T07:53:59;10.40;78.80
2929;DHT22;1474;51.460;7.150;2024-01-30T07:56:24;10.40;78.70
2929;DHT22;1474;51.460;7.150;2024-01-30T07:58:50;10.40;78.80
2929;DHT22;1474;51.460;7.150;2024-01-30T08:01:16;10.40;78.90
2929;DHT22;1474;51.460;7.150;2024-01-30T08:03:41;10.40;79.00
2929;DHT22;1474;51.460;7.150;2024-01-30T08:06:07;10.40;79.20
2929;DHT22;1474;51.460;7.150;2024-01-30T08:08:33;10.50;79.10
2929;DHT22;1474;51.460;7.150;2024-01-30T08:10:58;10.50;79.00
2929;DHT22;1474;51.460;7.150;2024-01-30T08:13:24;10.50;79.00
2929;DHT22;1474;51.460;7.150;2024-01-30T08:15:50;10.60;78.90
2929;DHT22;1474;51.460;7.150;2024-01-30T08:18:15;10.60;78.80
2929;DHT22;1474;51.460;7.150;2024-01-30T08:20:41;10.70;78.70
2929;DHT22;1474;51.460;7.150;2024-01-30T08:23:06;10.70;78.60
2929;DHT22;1474;51.460;7.150;2024-01-30T08:25:32;10.80;78.40
2929;DHT22;1474;51.460;7.150;2024-01-30T08:28:03;10.80;78.40
2929;DHT22;1474;51.460;7.150;2024-01-30T08:30:33;10.80;78.40
2929;DHT22;1474;51.460;7.150;2024-01-30T08:33:23;10.90;78.50
2929;DHT22;1474;51.460;7.150;2024-01-30T08:35:48;10.90;78.50
2929;DHT22;1474;51.460;7.150;2024-01-30T08:38:14;11.00;78.50
2929;DHT22;1474;51.460;7.150;2024-01-30T08:40:42;11.00;78.40
2929;DHT22;1474;51.460;7.150;2024-01-30T08:43:08;11.00;78.30
2929;DHT22;1474;51.460;7.150;2024-01-30T08:45:37;11.10;78.20
2929;DHT22;1474;51.460;7.150;2024-01-30T08:48:06;11.10;78.20
2929;DHT22;1474;51.460;7.150;2024-01-30T08:50:32;11.20;78.00
2929;DHT22;1474;51.460;7.150;2024-01-30T08:53:06;11.20;78.00
2929;DHT22;1474;51.460;7.150;2024-01-30T08:55:36;11.20;77.90
2929;DHT22;1474;51.460;7.150;2024-01-30T08:58:02;11.30;77.80
2929;DHT22;1474;51.460;7.150;2024-01-30T09:00:50;11.20;77.70
2929;DHT22;1474;51.460;7.150;2024-01-30T09:03:17;11.30;77.80
2929;DHT22;1474;51.460;7.150;2024-01-30T09:05:43;11.30;77.70
2929;DHT22;1474;51.460;7.150;2024-01-30T09:08:09;11.30;77.40
2929;DHT22;1474;51.460;7.150;2024-01-30T09:10:39;11.40;77.40
2929;DHT22;1474;51.460;7.150;2024-01-30T09:13:07;11.40;77.20
2929;DHT22;1474;51.460;7.150;2024-01-30T09:15:34;11.40;77.10
2929;DHT22;1474;51.460;7.150;2024-01-30T09:18:01;11.40;77.20
2929;DHT22;1474;51.460;7.150;2024-01-30T09:20:27;11.50;77.20
2929;DHT22;1474;51.460;7.150;2024-01-30T09:22:53;11.50;76.90
2929;DHT22;1474;51.460;7.150;2024-01-30T09:25:18;11.60;77.00
2929;DHT22;1474;51.460;7.150;2024-01-30T09:27:44;11.60;76.90
2929;DHT22;1474;51.460;7.150;2024-01-30T09:30:10;11.60;76.90
2929;DHT22;1474;51.460;7.150;2024-01-30T09:32:36;11.60;76.70
2929;DHT22;1474;51.460;7.150;2024-01-30T09:35:01;11.60;76.60
2929;DHT22;1474;51.460;7.150;2024-01-30T09:37:27;11.60;76.40
2929;DHT22;1474;51.460;7.150;2024-01-30T09:39:53;11.70;76.20
2929;DHT22;1474;51.460;7.150;2024-01-30T09:42:35;11.60;76.30
2929;DHT22;1474;51.460;7.150;2024-01-30T09:45:05;11.70;76.10
2929;DHT22;1474;51.460;7.150;2024-01-30T09:47:40;11.70;76.20
2929;DHT22;1474;51.460;7.150;2024-01-30T09:50:07;11.70;76.00
2929;DHT22;1474;51.460;7.150;2024-01-30T09:52:33;11.70;76.10
2929;DHT22;1474;51.460;7.150;2024-01-30T09:55:00;11.70;76.00
2929;DHT22;1474;51.460;7.150;2024-01-30T09:57:26;11.80;75.90
2929;DHT22;1474;51.460;7.150;2024-01-30T09:59:52;11.90;75.70
2929;DHT22;1474;51.460;7.150;2024-01-30T10:02:20;11.90;75.70
2929;DHT22;1474;51.460;7.150;2024-01-30T10:04:48;12.00;75.50
2929;DHT22;1474;51.460;7.150;2024-01-30T10:07:15;12.00;75.30
2929;DHT22;1474;51.460;7.150;2024-01-30T10:09:41;12.10;75.10
2929;DHT22;1474;51.460;7.150;2024-01-30T10:12:08;12.10;74.80
2929;DHT22;1474;51.460;7.150;2024-01-30T10:14:37;12.20;74.90
2929;DHT22;1474;51.460;7.150;2024-01-30T10:17:03;12.20;74.60
2929;DHT22;1474;51.460;7.150;2024-01-30T10:19:29;12.30;74.30
2929;DHT22;1474;51.460;7.150;2024-01-30T10:21:55;12.40;74.50
2929;DHT22;1474;51.460;7.150;2024-01-30T10:24:24;12.50;73.80
2929;DHT22;1474;51.460;7.150;2024-01-30T10:26:50;12.60;73.80
2929;DHT22;1474;51.460;7.150;2024-01-30T10:29:17;12.60;73.10
2929;DHT22;1474;51.460;7.150;2024-01-30T10:31:42;12.60;73.00
2929;DHT22;1474;51.460;7.150;2024-01-30T10:34:08;12.70;73.10
2929;DHT22;1474;51.460;7.150;2024-01-30T10:36:41;12.70;73.40
2929;DHT22;1474;51.460;7.150;2024-01-30T10:39:08;12.70;73.30
2929;DHT22;1474;51.460;7.150;2024-01-30T10:41:44;12.70;73.20
2929;DHT22;1474;51.460;7.150;2024-01-30T10:44:11;12.80;73.10
2929;DHT22;1474;51.460;7.150;2024-01-30T10:46:41;12.90;73.70
2929;DHT22;1474;51.460;7.150;2024-01-30T10:49:07;13.00;72.80
2929;DHT22;1474;51.460;7.150;2024-01-30T10:51:34;13.10;72.10
2929;DHT22;1474;51.460;7.150;2024-01-30T10:54:03;13.10;71.90
2929;DHT22;1474;51.460;7.150;2024-01-30T10:56:32;13.10;71.90
2929;DHT22;1474;51.460;7.150;2024-01-30T10:58:59;13.10;71.90
2929;DHT22;1474;51.460;7.150;2024-01-30T11:01:26;13.10;72.30
2929;DHT22;1474;51.460;7.150;2024-01-30T11:03:53;13.20;72.70
2929;DHT22;1474;51.460;7.150;2024-01-30T11:06:22;13.20;72.20
2929;DHT22;1474;51.460;7.150;2024-01-30T11:09:01;13.30;72.10
2929;DHT22;1474;51.460;7.150;2024-01-30T11:11:28;13.30;72.10
2929;DHT22;1474;51.460;7.150;2024-01-30T11:13:54;13.40;72.10
2929;DHT22;1474;51.460;7.150;2024-01-30T11:16:20;13.40;72.10
2929;DHT22;1474;51.460;7.150;2024-01-30T11:18:50;13.40;72.20
2929;DHT22;1474;51.460;7.150;2024-01-30T11:21:19;13.40;72.30
2929;DHT22;1474;51.460;7.150;2024-01-30T11:23:44;13.40;72.20
2929;DHT22;1474;51.460;7.150;2024-01-30T11:26:10;13.40;72.30
2929;DHT22;1474;51.460;7.150;2024-01-30T11:28:38;13.50;72.10
2929;DHT22;1474;51.460;7.150;2024-01-30T11:31:07;13.50;72.10
2929;DHT22;1474;51.460;7.150;2024-01-30T11:33:33;13.50;72.40
2929;DHT22;1474;51.460;7.150;2024-01-30T11:36:00;13.50;72.60
2929;DHT22;1474;51.460;7.150;2024-01-30T11:38:27;13.50;72.40
2929;DHT22;1474;51.460;7.150;2024-01-30T11:40:54;13.60;72.90
2929;DHT22;1474;51.460;7.150;2024-01-30T11:43:21;13.60;72.50
2929;DHT22;1474;51.460;7.150;2024-01-30T11:45:47;13.60;72.60
2929;DHT22;1474;51.460;7.150;2024-01-30T11:48:13;13.60;72.50
2929;DHT22;1474;51.460;7.150;2024-01-30T11:50:39;13.60;72.60
2929;DHT22;1474;51.460;7.150;2024-01-30T11:53:06;13.50;72.80
2929;DHT22;1474;51.460;7.150;2024-01-30T11:55:33;13.40;73.00
2929;DHT22;1474;51.460;7.150;2024-01-30T11:57:59;13.40;73.20
2929;DHT22;1474;51.460;7.150;2024-01-30T12:00:25;13.40;73.40
2929;DHT22;1474;51.460;7.150;2024-01-30T12:02:52;13.40;73.50
2929;DHT22;1474;51.460;7.150;2024-01-30T12:05:28;13.40;73.80
2929;DHT22;1474;51.460;7.150;2024-01-30T12:07:53;13.40;73.60
2929;DHT22;1474;51.460;7.150;2024-01-30T12:10:20;13.40;73.80
2929;DHT22;1474;51.460;7.150;2024-01-30T12:12:48;13.40;73.60
2929;DHT22;1474;51.460;7.150;2024-01-30T12:15:15;13.40;73.90
2929;DHT22;1474;51.460;7.150;2024-01-30T12:17:42;13.30;74.00
2929;DHT22;1474;51.460;7.150;2024-01-30T12:22:41;13.20;74.40
2929;DHT22;1474;51.460;7.150;2024-01-30T12:25:18;13.20;74.60
2929;DHT22;1474;51.460;7.150;2024-01-30T12:27:46;13.20;74.90
2929;DHT22;1474;51.460;7.150;2024-01-30T12:30:15;13.20;75.20
2929;DHT22;1474;51.460;7.150;2024-01-30T12:32:43;13.10;75.00
2929;DHT22;1474;51.460;7.150;2024-01-30T12:35:14;13.20;75.10
2929;DHT22;1474;51.460;7.150;2024-01-30T12:37:41;13.20;75.10
2929;DHT22;1474;51.460;7.150;2024-01-30T12:40:10;13.20;75.20
2929;DHT22;1474;51.460;7.150;2024-01-30T12:42:38;13.30;75.10
2929;DHT22;1474;51.460;7.150;2024-01-30T12:45:05;13.30;75.10
2929;DHT22;1474;51.460;7.150;2024-01-30T12:47:31;13.30;75.20
2929;DHT22;1474;51.460;7.150;2024-01-30T12:49:58;13.40;75.40
2929;DHT22;1474;51.460;7.150;2024-01-30T12:52:24;13.40;75.30
2929;DHT22;1474;51.460;7.150;2024-01-30T12:54:50;13.40;75.20
2929;DHT22;1474;51.460;7.150;2024-01-30T12:57:16;13.30;75.50
2929;DHT22;1474;51.460;7.150;2024-01-30T12:59:43;13.30;75.60
2929;DHT22;1474;51.460;7.150;2024-01-30T13:02:09;13.40;75.50
2929;DHT22;1474;51.460;7.150;2024-01-30T13:04:35;13.30;75.60
2929;DHT22;1474;51.460;7.150;2024-01-30T13:07:02;13.30;75.90
2929;DHT22;1474;51.460;7.150;2024-01-30T13:09:29;13.30;76.00
2929;DHT22;1474;51.460;7.150;2024-01-30T13:11:55;13.20;76.00
2929;DHT22;1474;51.460;7.150;2024-01-30T13:14:22;13.10;76.60
2929;DHT22;1474;51.460;7.150;2024-01-30T13:16:47;13.20;76.40
2929;DHT22;1474;51.460;7.150;2024-01-30T13:19:13;13.20;76.30
2929;DHT22;1474;51.460;7.150;2024-01-30T13:21:39;13.10;76.30
2929;DHT22;1474;51.460;7.150;2024-01-30T13:24:05;13.10;76.60
2929;DHT22;1474;51.460;7.150;2024-01-30T13:26:34;13.10;76.60
2929;DHT22;1474;51.460;7.150;2024-01-30T13:29:00;13.10;76.60
2929;DHT22;1474;51.460;7.150;2024-01-30T13:33:53;13.10;76.40
2929;DHT22;1474;51.460;7.150;2024-01-30T13:36:19;13.00;77.20
2929;DHT22;1474;51.460;7.150;2024-01-30T13:38:44;13.00;77.30
2929;DHT22;1474;51.460;7.150;2024-01-30T13:41:10;13.00;77.50
2929;DHT22;1474;51.460;7.150;2024-01-30T13:43:36;12.90;77.60
2929;DHT22;1474;51.460;7.150;2024-01-30T13:46:02;12.90;77.80
2929;DHT22;1474;51.460;7.150;2024-01-30T13:48:31;12.90;78.00
2929;DHT22;1474;51.460;7.150;2024-01-30T13:51:09;12.90;78.20
2929;DHT22;1474;51.460;7.150;2024-01-30T13:53:39;12.90;78.20
2929;DHT22;1474;51.460;7.150;2024-01-30T13:56:08;12.80;78.40
2929;DHT22;1474;51.460;7.150;2024-01-30T13:58:34;12.80;79.10
2929;DHT22;1474;51.460;7.150;2024-01-30T14:01:04;12.80;78.70
2929;DHT22;1474;51.460;7.150;2024-01-30T14:03:30;12.80;78.90
2929;DHT22;1474;51.460;7.150;2024-01-30T14:05:56;12.70;79.20
2929;DHT22;1474;51.460;7.150;2024-01-30T14:08:21;12.70;79.30
2929;DHT22;1474;51.460;7.150;2024-01-30T14:10:49;12.60;79.70
2929;DHT22;1474;51.460;7.150;2024-01-30T14:13:15;12.60;79.80
2929;DHT22;1474;51.460;7.150;2024-01-30T14:15:40;12.60;79.80
2929;DHT22;1474;51.460;7.150;2024-01-30T14:18:06;12.60;79.70
2929;DHT22;1474;51.460;7.150;2024-01-30T14:20:34;12.70;79.70
2929;DHT22;1474;51.460;7.150;2024-01-30T14:22:59;12.70;79.70
2929;DHT22;1474;51.460;7.150;2024-01-30T14:25:25;12.70;79.80
2929;DHT22;1474;51.460;7.150;2024-01-30T14:27:51;12.70;79.70
2929;DHT22;1474;51.460;7.150;2024-01-30T14:30:17;12.70;79.70
2929;DHT22;1474;51.460;7.150;2024-01-30T14:32:43;12.80;79.70
2929;DHT22;1474;51.460;7.150;2024-01-30T14:35:10;12.80;79.40
2929;DHT22;1474;51.460;7.150;2024-01-30T14:37:37;12.80;79.50
2929;DHT22;1474;51.460;7.150;2024-01-30T14:40:03;12.90;79.40
2929;DHT22;1474;51.460;7.150;2024-01-30T14:42:29;12.90;79.20
2929;DHT22;1474;51.460;7.150;2024-01-30T14:44:57;12.90;79.10
2929;DHT22;1474;51.460;7.150;2024-01-30T14:47:23;12.90;79.20
2929;DHT22;1474;51.460;7.150;2024-01-30T14:49:48;12.90;79.00
2929;DHT22;1474;51.460;7.150;2024-01-30T14:52:14;12.90;79.00
2929;DHT22;1474;51.460;7.150;2024-01-30T14:54:40;12.90;78.90
2929;DHT22;1474;51.460;7.150;2024-01-30T14:57:06;12.90;79.00
2929;DHT22;1474;51.460;7.150;2024-01-30T14:59:31;12.80;78.90
2929;DHT22;1474;51.460;7.150;2024-01-30T15:01:58;12.70;78.90
2929;DHT22;1474;51.460;7.150;2024-01-30T15:04:24;12.70;79.20
2929;DHT22;1474;51.460;7.150;2024-01-30T15:06:49;12.70;79.20
2929;DHT22;1474;51.460;7.150;2024-01-30T15:09:15;12.70;79.10
2929;DHT22;1474;51.460;7.150;2024-01-30T15:11:43;12.70;79.10
2929;DHT22;1474;51.460;7.150;2024-01-30T15:14:09;12.70;79.10
2929;DHT22;1474;51.460;7.150;2024-01-30T15:16:35;12.70;79.10
2929;DHT22;1474;51.460;7.150;2024-01-30T15:19:01;12.70;79.00
2929;DHT22;1474;51.460;7.150;2024-01-30T15:21:28;12.60;78.70
2929;DHT22;1474;51.460;7.150;2024-01-30T15:23:54;12.60;78.50
2929;DHT22;1474;51.460;7.150;2024-01-30T15:26:20;12.60;78.10
2929;DHT22;1474;51.460;7.150;2024-01-30T15:28:46;12.60;77.90
2929;DHT22;1474;51.460;7.150;2024-01-30T15:31:11;12.50;77.80
2929;DHT22;1474;51.460;7.150;2024-01-30T15:33:37;12.60;77.90
2929;DHT22;1474;51.460;7.150;2024-01-30T15:36:03;12.50;77.60
2929;DHT22;1474;51.460;7.150;2024-01-30T15:38:29;12.60;76.90
